今日のアクセス数

    岡山グライダークラブ活動状況掲示板

岡山グライダークラブ
岡山市浦安南町639-1 岡南飛行場
 使用機:シャイベ式 SF25C型 ファルケ   JA2330
      ヴァレンティン式17E型 タイフーン  JA2342
 練習日:毎日曜日  クラブルーム:電話 086-265-1810
この掲示板は岡山グライダークラブの活動状況をお知らせする掲示板です。
!!!この掲示板は投稿規制をしています。!!!
クラブ関連各種情報は 岡山グライダークラブクラブルーム      を       .
  ブリーフイング情報は  岡山グライダークラブブリーフィングルーム  をご覧下さい。 .
※写真はクリックすると拡大して見ることが出来ます。
岡南飛行場へのアクセス等は 岡南飛行場管理事務所 をご覧ください。
クラブの ホームページ ができました。

!!!当クラブの見学等を希望される方は こちら をご覧ください!!!

ページ 1 (1〜10)ホームページへ戻る

新型コロナウイルス感染拡大に伴う活動自粛について
by OGC at 2021/1/19(火) 18:47:03 No.20210119184214 コメント】  削除 引用

 緊急事態宣言の発出を受け、〜2/7までの宣言期間、訓練活動休止とします。

 なお、宣言期間が変更された場合には、別途、協議の上、周知致します。

 総会につきましては、感染状況が落ち着いてから、時期を見て開催致します。

 HDD「データ復元」ino    データ復旧、MAC、料金、ino

1月17日の総会・訓練の中止
by OGC at 2021/1/15(金) 12:51:56 No.20210115123549 コメント】  削除 引用

最近の新型コロナウィルスの感染拡大を受け、1月17日の総会および訓練を中止します。
これ以降の総会および訓練等については、決まり次第お知らせしますので、しばらくお待ちください。

2020年活動実績
by OGC at 2021/1/11(月) 14:28:32 No.20210111141641 コメント】  削除 引用
1024 x 768 x 100,878バイト
No.1

2020年度の活動実績を報告します。

JA2330  日数  47日
    回数 412回
    時間 152+45
JA2342  日数 32日
        回数 101回
        時間  50+50
合計   日数  47日
    回数 513回
        時間 203+35

4月5月の自粛期間があったことを考えるとよく頑張った数字だと思います。

会員の皆様、応援くださっている皆様、ありがとうございます。これからも、よろしくお願いします。
01月10日
by OGC at 2021/1/10(日) 21:22:06 No.20210110211807 コメント】  削除 引用
1024 x 768 x 101,293バイト
No.1

01月10日
本日の参加者
  会員      14名
  その他      0名


@本日の様子






METAR
RJBK 100000Z 26010KT 30KM FEW025CU 00/M06 Q1022 A3018
RJOB 100000Z 27010KT 9999 FEW020 M01/M06 Q1021
RJOT 100000Z 26005KT 220V300 9999 FEW020 SCT030 00/M05 Q1022
RJOA 100000Z 29005KT 9999 FEW025 M03/M06 Q1022

TAF
RJOB 092313Z 1000/1106 26012KT 9999 FEW025
     BECMG 1018/1021 06004KT
     BECMG 1100/1103 20005KT
RJOT 092310Z 1000/1106 26012KT 9999 FEW020 SCT035
     BECMG 1009/1011 20006KT
RJOA 092308Z 1000/1106 28009KT 9999 FEW020 BKN035

今年初めての訓練日、天候は快晴、気温は0℃、風は正対風、積雲も昼過ぎからでき始め、サーマルソアリングを楽しめる一日でした。
来週は総会を予定しておりますので、会員の方はご参加をお願いします。


解散    17:30

1番機  11:15離陸 撤収機  17:00着陸 

SF25C JA2330 ファルケ     06Flt.1h50min  
17E   JA2342 タイフーン    06Flt.2h15min  
合計                    12Flt.4h05min
12月20日
by OGC at 2020/12/21(月) 00:24:56 No.20201221002020 コメント】  削除 引用
1024 x 768 x 80,204バイト
No.1

12月20日
本日の参加者
  会員      16名
  その他      0名


@本日の様子






METAR
RJBK 200000Z 25004KT 30KM FEW025CU BKN/// 03/M00 A3032
RJOB 200000Z 27005KT 250V330 9999 FEW020 SCT180 BKN/// 02/M00 Q1025
RJOT 200000Z 24006KT 9999 FEW020 BKN030 04/00 Q1026
RJOA 200000Z 29005KT 9999 -SHSN FEW020 BKN/// 02/M01 Q1026
TAF
RJOB 192308Z 2000/2106 28010KT 9999 FEW025 SCT045
RJOT 192311Z 2000/2106 28012KT 9999 FEW025 SCT045
     BECMG 2010/2012 20006KT
     BECMG 2100/2103 28012KT
RJOA 192305Z 2000/2106 29009KT 9999 FEW025 SCT040

本日は快晴、日中の日差しで積雲が段々とでき、サーマルソアリングのベストコンディションでした。
訓練生はサーマルソアリングの他、岡山空港でのローパスや与島へのNAV訓練、ライセサーもサーマルソアリングの他、高梁や尾道へのNAV訓練を行っていました。
一方、格納庫では今年最後の活動日になることから大掃除を行い、お正月を迎える準備を行いました。
あと、12月になりましたので年会費納入がまだの方は納入をお願いします。総会は来年1月17日を予定しております。



解散    17:30

1番機  10:45離陸 撤収機  16:50着陸 

SF25C JA2330 ファルケ     08Flt.3h50min  
17E   JA2342 タイフーン    04Flt.2h45min  
合計                    12Flt.6h35min
12月13日
by OGC at 2020/12/13(日) 22:45:48 No.20201213224251 コメント】  削除 引用
1024 x 768 x 78,558バイト
No.1

12月13日
本日の参加者
  会員      18名
  その他      1名


@本日の様子






METAR
RJBK 130000Z 22004KT 30KM FEW035CU SCT060SC 07/03 Q1017 A3005
RJOB 130000Z 26004KT 9999 FEW020 SCT/// 08/01 Q1016
RJOT 130000Z 25008KT 9999 FEW030 SCT045 BKN060 09/02 Q1017
RJOA 130000Z 32004KT 9999 FEW025 BKN040 06/M00 Q1017
TAF
RJOB 122309Z 1300/1406 27008KT 9999 FEW025 SCT045
RJOT 122309Z 1300/1406 26010KT 9999 FEW030
RJOA 122307Z 1300/1406 28008KT 9999 FEW030 SCT045

本日は曇り、風は程よい正対風で着陸練習日和でした。
訓練生はTGL訓練やNAV訓練、ライセサーは体験搭乗や小豆島へ行っていました。
また、本日、1名がファーストソロに出ました。おめでとうございます。


解散    17:30

1番機  10:20離陸 撤収機  16:45着陸 

SF25C JA2330 ファルケ     10Flt.3h30min  
17E   JA2342 タイフーン    06Flt.2h25min  
合計                    16Flt.5h55min
12月06日
by OGC at 2020/12/6(日) 21:09:33 No.20201206205955 コメント】  削除 引用
1024 x 768 x 87,465バイト
No.1

12月06日
本日の参加者
  会員      20名
  その他      4名


@本日の様子






METAR
RJBK 060000Z VRB01KT 30KM FEW020CU SCT/// 06/02 Q1027 A3034
RJOB 060000Z VRB01KT 9999 FEW025 SCT120 07/01 Q1026
RJOT 060000Z 14004KT 9999 FEW025 08/05 Q1026
RJOA 060000Z 26003KT 9999 FEW040 SCT/// 07/M00 Q1026
TAF
RJOB 052312Z 0600/0706 03004KT 9999 FEW030
     BECMG 0601/0603 24005KT
RJOT 052309Z 0600/0706 12006KT 9999 FEW030
     BECMG 0601/0603 32005KT
     BECMG 0607/0609 15006KT
     BECMG 0700/0703 30006KT
RJOA 052305Z 0600/0706 30005KT 9999 FEW030

本日は快晴、風もほとんどなく着陸練習日和でした。
訓練生はTGL訓練やNAV訓練、ライセサーは○○大学生の体験搭乗や高松空港でTGL訓練を楽しんでいました。
出席会員20名、またまた、記録更新です。


解散    17:30

1番機  10:35離陸 撤収機  16:50着陸 

SF25C JA2330 ファルケ     10Flt.3h40min  
17E   JA2342 タイフーン    07Flt.3h00min  
合計                    17Flt.6h40min

11月29日
by OGC at 2020/11/29(日) 22:17:59 No.20201129221502 コメント】  削除 引用
1024 x 768 x 68,990バイト
No.1

11月29日
本日の参加者
  会員      18名
  その他      0名


@本日の様子






METAR
RJOB 290000Z 29004KT 260V340 9999 FEW020 SCT040 BKN120 07/04 Q1022
RJOT 290000Z 25005KT 9999 FEW020 SCT110 BKN130 09/04 Q1022
RJOA 290000Z 29005KT 9999 FEW025 BKN050 08/03 Q1023
TAF
RJOB 282308Z 2900/3006 34004KT 9999 FEW030
           BECMG 2900/2902 28006KT
RJOT 282305Z 2900/3006 27012KT 9999 FEW020 BKN030
RJOA 282309Z 2900/3006 28008KT 9999 FEW020 BKN045

本日は、曇りで外気温度9度と肌寒い朝でした。
訓練生はTGL訓練やサーマルソアリングの訓練、ライセサーは久々のタイフーンを楽しんでいました。
また、本日、男性ばかりの当クラブに紅一点、女性会員1名が入会されました。


解散    17:00

1番機  10:35離陸 撤収機  16:35着陸 

SF25C JA2330 ファルケ     09Flt.3h05min  
17E   JA2342 タイフーン    05Flt.1h40min  
合計                    14Flt.4h45min
11月22日
by OGC at 2020/11/22(日) 18:50:33 No.20201122184756 コメント】  削除 引用
1024 x 768 x 80,031バイト
No.1

11月22日
本日の参加者
  会員      16名
  その他      0名


@本日の様子






METAR
RJBK 220000Z VRB01KT 30KM FEW025CU SCT050SC 09/05 Q1022 A3019
RJOB 220000Z VRB01KT 9999 FEW020 SCT050 10/06 Q1021
RJOT 220000Z 13004KT 9999 FEW020 11/07 Q1021
RJOA 220000Z 09003KT 9999 FEW030 10/07 Q1021
TAF
RJOB 212307Z 2200/2306 35004KT 9999 FEW020
  BECMG 2201/2203 22006KT
  BECMG 2303/2306 36006KT
RJOT 212309Z 2200/2306 36005KT 9999 FEW030
  BECMG 2207/2209 22005KT
  BECMG 2300/2303 28012KT
RJOA 212307Z 2200/2306 24006KT 9999 FEW025 SCT045
  BECMG 2303/2306 32011KT

本日の天候は、曇りでしたが15時過ぎから時々雨がパラパラ。
訓練生は風の影響が少ないのでTGL訓練やNAV訓練、ライセサーは日没が早くなったので
ショートフライトで我慢してもらいました。


解散    17:00

1番機  10:00離陸 撤収機  16:25着陸 

SF25C JA2330 ファルケ     10Flt.3h55min  
17E   JA2342 タイフーン    00Flt.0h00min  
合計                    10Flt.3h55min
11月15日
by OGC at 2020/11/16(月) 00:19:38 No.20201116001547 コメント】  削除 引用
1024 x 768 x 69,349バイト
No.1

11月15日
本日の参加者
  会員      16名
  その他      6名


@本日の様子






METAR
RJBK 142330Z VRB01KT 30KM FEW/// 09/06 Q1030 A3042
RJOB 142300Z 36004KT 9999 FEW015 09/06 Q1029
RJOT 142300Z 14006KT 9999 FEW025 09/06 Q1029
RJOA 142300Z 06003KT 9999 FEW020 10/07 Q1029
TAF
RJOB 151109Z 1512/1618 35005KT 9999 FEW020
  BECMG 1522/1600 21005KT
  BECMG 1606/1609 36005KT
RJOT 151105Z 1512/1618 15006KT 9999 FEW020
  BECMG 1600/1603 29006KT
  BECMG 1606/1609 15006KT
RJOA 151107Z 1512/1618 32005KT 9999 FEW020
  BECMG 1600/1603 15005KT
  BECMG 1609/1612 32005KT

本日は、クラブルームに整備チームを残し、笠岡ふれあい空港のイベントに参加してきました。
笠岡では、6名の方にモーターグライダーを体験していただき、高校生の自作自動車や豪華なスポーツカー、
室屋氏のアクロバット飛行など多彩なイベントで盛り上がっていました。



解散    17:30

1番機  09:05離陸 撤収機  16:05着陸 

SF25C JA2330 ファルケ     11Flt.2h55min  
17E   JA2342 タイフーン    00Flt.0h00min  
合計                    11Flt.2h55min

 HDD「データ復元」ino    データ復旧、MAC、料金、ino

ホームページへ 全 52 件 [ 1 2 3 4 5 6 ]

モータースポーツ | 管理者へメール | お知らせ | 一括削除
携帯から使う方法 | ヘルプ | 利用規約 | 違反報告 | 管理パネル



- 無料レンタル掲示板 -